Accueil
METAR-TAF:

METAR-TAF

Aéroports :

Savoonga, Alaska, États-Unis

latitude: 63-41N, longitude: 170-30W, altitude: 16 m

Observation

Le bulletin a été fait il y a 1 heure et 19 minutes, à 12:45 UTC
Vent 9 kt de nord-est
Température 1°C
Humidité 69%
Pression 1024 hPa
Visibilité: 16.1 km
Nuages fragmentés à une hauteur de 2500 ft
Ciel couvert à une hauteur de 5500 ft

METAR: PASA 281245Z AUTO 05009KT 10SM BKN025 OVC055 01/M04 A3025 RMK AO2 FZRANO

Heure: 06:04 (14:04 UTC)


TAF: absent

Observations et prévisions météorologiques de plus de 4000 aéroports (messages METAR et TAF).

Les stations disponibles sont représentées par des disques jaunes et rouges sur la carte.

Passer la souris dessus pour voir le nom de la station.

Cliquer dessus pour voir les observations et prévisions météorologiques.

Pour changer de carte: cliquez sur les boutons verts avec une croix noire pour zoomer, sur le bouton vert avec un tiret pour effectuer un zoom arrière, ou sur les flèches vertes pour les cartes adjacentes.


METAR-TAF: